Time;durP1;ratioP1;P1;durP2;ratioP2;P2;SDS_P1;SDS_P2;PMS_P1;PMS_P2;Temp;Humidity;BMP_temperature;BMP_pressure;BME280_temperature;BME280_humidity;BME280_pressure;Samples;Min_cycle;Max_cycle;Signal;HPM_P1;HPM_P2
2023/10/23 00:00:25;;;;;;;;;;;;;;;;;;5048525;28;19935;-63
2023/10/23 00:02:51;;;;;;;;;;;;;;;;;;5052011;28;19958;-66
2023/10/23 00:05:17;;;;;;;;;;;;;;;;;;5047991;28;19913;-69
2023/10/23 00:07:43;;;;;;;;;;;;;;;;;;5055083;28;19956;-69
2023/10/23 00:10:09;;;;;;;;;;;;;;;;;;5028510;28;20296;-69
2023/10/23 00:12:35;;;;;;;;;;;;;;;;;;5051020;28;19916;-65
2023/10/23 00:15:01;;;;;;;;;;;;;;;;;;5054001;28;19952;-66
2023/10/23 00:17:27;;;;;;;;;;;;;;;;;;5052627;28;19962;-63
2023/10/23 00:19:53;;;;;;;;;;;;;;;;;;5046934;28;19913;-64
2023/10/23 00:22:19;;;;;;;;;;;;;;;;;;5050337;28;19917;-65
2023/10/23 00:24:44;;;;;;;;;;;;;;;;;;5052792;28;19975;-66
2023/10/23 00:27:10;;;;;;;;;;;;;;;;;;5050927;28;20372;-65
2023/10/23 00:29:36;;;;;;;;;;;;;;;;;;5050680;28;19920;-65
2023/10/23 00:32:02;;;;;;;;;;;;;;;;;;5048238;28;19986;-64
2023/10/23 00:34:28;;;;;;;;;;;;;;;;;;5048103;28;20004;-63
2023/10/23 00:36:54;;;;;;;;;;;;;;;;;;5046778;28;19917;-65
2023/10/23 00:39:20;;;;;;;;;;;;;;;;;;5034991;28;19917;-65
2023/10/23 00:41:46;;;;;;;;;;;;;;;;;;5045826;28;20007;-65
2023/10/23 00:44:12;;;;;;;;;;;;;;;;;;5053819;28;20287;-65
2023/10/23 00:46:37;;;;;;;;;;;;;;;;;;5048527;28;19913;-65
2023/10/23 00:49:03;;;;;;;;;;;;;;;;;;5050529;28;19916;-65
2023/10/23 00:51:29;;;;;;;;;;;;;;;;;;5048866;28;19944;-65
2023/10/23 00:53:55;;;;;;;;;;;;;;;;;;5040849;28;20287;-65
2023/10/23 00:56:21;;;;;;;;;;;;;;;;;;5053883;28;19919;-65
2023/10/23 00:58:47;;;;;;;;;;;;;;;;;;5052108;28;20039;-65
2023/10/23 01:01:13;;;;;;;;;;;;;;;;;;5046630;28;19913;-68
2023/10/23 01:03:39;;;;;;;;;;;;;;;;;;5053474;28;19955;-69
2023/10/23 01:06:05;;;;;;;;;;;;;;;;;;5052066;28;19952;-69
2023/10/23 01:08:31;;;;;;;;;;;;;;;;;;5052877;28;20011;-69
2023/10/23 01:10:57;;;;;;;;;;;;;;;;;;5040931;28;20012;-68
2023/10/23 01:13:23;;;;;;;;;;;;;;;;;;5052260;28;19913;-67
2023/10/23 01:15:49;;;;;;;;;;;;;;;;;;5048285;28;20223;-69
2023/10/23 01:18:15;;;;;;;;;;;;;;;;;;5047704;28;19913;-70
2023/10/23 01:20:41;;;;;;;;;;;;;;;;;;5050403;28;19982;-69
2023/10/23 01:23:08;;;;;;;;;;;;;;;;;;5044702;28;19996;-69
2023/10/23 01:25:34;;;;;;;;;;;;;;;;;;5035517;28;19917;-69
2023/10/23 01:28:00;;;;;;;;;;;;;;;;;;5050163;28;20015;-68
2023/10/23 01:30:26;;;;;;;;;;;;;;;;;;5048590;28;19916;-69
2023/10/23 01:32:52;;;;;;;;;;;;;;;;;;5052333;28;20601;-67
2023/10/23 01:35:18;;;;;;;;;;;;;;;;;;5050682;28;20033;-69
2023/10/23 01:37:45;;;;;;;;;;;;;;;;;;5052393;28;20007;-69
2023/10/23 01:40:11;;;;;;;;;;;;;;;;;;5053091;28;19982;-69
2023/10/23 01:42:37;;;;;;;;;;;;;;;;;;5050497;28;20004;-69
2023/10/23 01:45:03;;;;;;;;;;;;;;;;;;5051825;28;19913;-68
2023/10/23 01:47:29;;;;;;;;;;;;;;;;;;5050407;28;19923;-69
2023/10/23 01:49:54;;;;;;;;;;;;;;;;;;5050699;28;19952;-67
2023/10/23 01:52:20;;;;;;;;;;;;;;;;;;5050477;28;19923;-69
2023/10/23 01:54:46;;;;;;;;;;;;;;;;;;5047978;28;20000;-67
2023/10/23 01:57:12;;;;;;;;;;;;;;;;;;5032821;28;19960;-69
2023/10/23 01:59:38;;;;;;;;;;;;;;;;;;5048750;28;20390;-68
2023/10/23 02:02:04;;;;;;;;;;;;;;;;;;5051577;28;20003;-69
2023/10/23 02:04:30;;;;;;;;;;;;;;;;;;5052289;28;19938;-69
2023/10/23 02:06:56;;;;;;;;;;;;;;;;;;5052107;28;19956;-69
2023/10/23 02:09:22;;;;;;;;;;;;;;;;;;5045351;28;20380;-68
2023/10/23 02:11:48;;;;;;;;;;;;;;;;;;5052771;28;19999;-67
2023/10/23 02:14:14;;;;;;;;;;;;;;;;;;5048136;28;20291;-65
2023/10/23 02:16:39;;;;;;;;;;;;;;;;;;5049554;28;19991;-65
2023/10/23 02:19:05;;;;;;;;;;;;;;;;;;5052585;28;20388;-65
2023/10/23 02:21:31;;;;;;;;;;;;;;;;;;5050370;28;20000;-65
2023/10/23 02:23:58;;;;;;;;;;;;;;;;;;5051174;28;20003;-65
2023/10/23 02:26:24;;;;;;;;;;;;;;;;;;5037381;28;19913;-65
2023/10/23 02:28:50;;;;;;;;;;;;;;;;;;5046821;28;20434;-65
2023/10/23 02:31:16;;;;;;;;;;;;;;;;;;5049969;28;19970;-65
2023/10/23 02:33:42;;;;;;;;;;;;;;;;;;5051329;28;19951;-65
2023/10/23 02:36:08;;;;;;;;;;;;;;;;;;5031132;28;20273;-64
2023/10/23 02:38:34;;;;;;;;;;;;;;;;;;5046172;28;19920;-65
2023/10/23 02:41:00;;;;;;;;;;;;;;;;;;5049858;28;20332;-65
2023/10/23 02:43:26;;;;;;;;;;;;;;;;;;5052728;28;20012;-65
2023/10/23 02:45:52;;;;;;;;;;;;;;;;;;5049241;28;19923;-65
2023/10/23 02:48:18;;;;;;;;;;;;;;;;;;5049386;28;19959;-65
2023/10/23 02:50:44;;;;;;;;;;;;;;;;;;5025406;28;19960;-63
2023/10/23 02:53:10;;;;;;;;;;;;;;;;;;5040401;28;19975;-65
2023/10/23 02:55:36;;;;;;;;;;;;;;;;;;5051906;28;20030;-64
2023/10/23 02:58:01;;;;;;;;;;;;;;;;;;5048817;28;19952;-65
2023/10/23 03:00:27;;;;;;;;;;;;;;;;;;5036130;28;19969;-65
2023/10/23 03:02:53;;;;;;;;;;;;;;;;;;5041393;28;20355;-65
2023/10/23 03:05:19;;;;;;;;;;;;;;;;;;5047911;28;19913;-63
2023/10/23 03:07:45;;;;;;;;;;;;;;;;;;5039932;28;19944;-65
2023/10/23 03:10:11;;;;;;;;;;;;;;;;;;5041599;28;19963;-65
2023/10/23 03:12:37;;;;;;;;;;;;;;;;;;5050108;28;20008;-65
2023/10/23 03:15:03;;;;;;;;;;;;;;;;;;5049027;28;19999;-65
2023/10/23 03:17:30;;;;;;;;;;;;;;;;;;5049373;28;20287;-65
2023/10/23 03:19:56;;;;;;;;;;;;;;;;;;5042825;28;19924;-64
2023/10/23 03:22:22;;;;;;;;;;;;;;;;;;5043105;28;20542;-68
2023/10/23 03:24:47;;;;;;;;;;;;;;;;;;5048166;28;19954;-68
2023/10/23 03:27:13;;;;;;;;;;;;;;;;;;5042535;28;19962;-68
2023/10/23 03:29:39;;;;;;;;;;;;;;;;;;5051617;28;19944;-67
2023/10/23 03:32:06;;;;;;;;;;;;;;;;;;5052624;28;19913;-68
2023/10/23 03:34:31;;;;;;;;;;;;;;;;;;5053863;28;19920;-68
2023/10/23 03:36:57;;;;;;;;;;;;;;;;;;5052849;28;19955;-68
2023/10/23 03:39:23;;;;;;;;;;;;;;;;;;5053110;28;19951;-68
2023/10/23 03:41:49;;;;;;;;;;;;;;;;;;5047657;28;20356;-68
2023/10/23 03:44:15;;;;;;;;;;;;;;;;;;5044172;28;20345;-68
2023/10/23 03:46:41;;;;;;;;;;;;;;;;;;5053287;28;19912;-68
2023/10/23 03:49:07;;;;;;;;;;;;;;;;;;5046170;28;19917;-68
2023/10/23 03:51:33;;;;;;;;;;;;;;;;;;5044508;28;19917;-68
2023/10/23 03:53:59;;;;;;;;;;;;;;;;;;5050476;28;20008;-69
2023/10/23 03:56:25;;;;;;;;;;;;;;;;;;5052327;28;19916;-68
2023/10/23 03:58:51;;;;;;;;;;;;;;;;;;5055284;28;19962;-69
2023/10/23 04:01:17;;;;;;;;;;;;;;;;;;5053637;28;19913;-68
2023/10/23 04:03:43;;;;;;;;;;;;;;;;;;5048333;28;20380;-68
2023/10/23 04:06:09;;;;;;;;;;;;;;;;;;5053452;28;19951;-69
2023/10/23 04:08:35;;;;;;;;;;;;;;;;;;5052128;28;19923;-69
2023/10/23 04:11:01;;;;;;;;;;;;;;;;;;5052882;28;20350;-68
2023/10/23 04:13:26;;;;;;;;;;;;;;;;;;5050628;28;19967;-68
2023/10/23 04:15:52;;;;;;;;;;;;;;;;;;5050492;28;19917;-69
2023/10/23 04:18:18;;;;;;;;;;;;;;;;;;5044099;28;20311;-68
2023/10/23 04:20:44;;;;;;;;;;;;;;;;;;5047201;28;19913;-68
2023/10/23 04:23:10;;;;;;;;;;;;;;;;;;5043743;28;20316;-69
2023/10/23 04:25:36;;;;;;;;;;;;;;;;;;5049414;28;19952;-68
2023/10/23 04:28:03;;;;;;;;;;;;;;;;;;5054692;28;19940;-69
2023/10/23 04:30:29;;;;;;;;;;;;;;;;;;5050251;28;19979;-69
2023/10/23 04:32:55;;;;;;;;;;;;;;;;;;5055269;28;19939;-68
2023/10/23 04:35:21;;;;;;;;;;;;;;;;;;5055135;28;19959;-69
2023/10/23 04:37:47;;;;;;;;;;;;;;;;;;5053391;28;19947;-68
2023/10/23 04:40:12;;;;;;;;;;;;;;;;;;5053173;28;20007;-69
2023/10/23 04:42:38;;;;;;;;;;;;;;;;;;5050382;28;20341;-68
2023/10/23 04:45:04;;;;;;;;;;;;;;;;;;5044571;28;20004;-68
2023/10/23 04:47:30;;;;;;;;;;;;;;;;;;5053118;28;19956;-68
2023/10/23 04:49:56;;;;;;;;;;;;;;;;;;5053717;28;20334;-69
2023/10/23 04:52:23;;;;;;;;;;;;;;;;;;5054498;28;19916;-68
2023/10/23 04:54:49;;;;;;;;;;;;;;;;;;5054536;28;20006;-68
2023/10/23 04:57:14;;;;;;;;;;;;;;;;;;5050070;28;19979;-68
2023/10/23 04:59:40;;;;;;;;;;;;;;;;;;5049264;28;20010;-69
2023/10/23 05:02:06;;;;;;;;;;;;;;;;;;5043173;28;19921;-68
2023/10/23 05:04:32;;;;;;;;;;;;;;;;;;5046668;28;20389;-68
2023/10/23 05:06:59;;;;;;;;;;;;;;;;;;5054297;28;19919;-68
2023/10/23 05:09:25;;;;;;;;;;;;;;;;;;5053904;28;19995;-68
2023/10/23 05:11:50;;;;;;;;;;;;;;;;;;5054407;28;20321;-69
2023/10/23 05:14:16;;;;;;;;;;;;;;;;;;5051567;28;19916;-68
2023/10/23 05:16:42;;;;;;;;;;;;;;;;;;5053867;28;19913;-69
2023/10/23 05:19:08;;;;;;;;;;;;;;;;;;5048217;28;19948;-68
2023/10/23 05:21:34;;;;;;;;;;;;;;;;;;5053568;28;19924;-68
2023/10/23 05:24:00;;;;;;;;;;;;;;;;;;5052326;28;19944;-68
2023/10/23 05:26:26;;;;;;;;;;;;;;;;;;5053326;28;20399;-68
2023/10/23 05:28:53;;;;;;;;;;;;;;;;;;5052033;28;19971;-68
2023/10/23 05:31:19;;;;;;;;;;;;;;;;;;5035680;28;19912;-68
2023/10/23 05:33:45;;;;;;;;;;;;;;;;;;5048920;28;19917;-68
2023/10/23 05:36:11;;;;;;;;;;;;;;;;;;5045175;28;19916;-68
2023/10/23 05:38:37;;;;;;;;;;;;;;;;;;5048988;28;19917;-68
2023/10/23 05:41:03;;;;;;;;;;;;;;;;;;5053054;28;19948;-68
2023/10/23 05:43:29;;;;;;;;;;;;;;;;;;5049792;28;19944;-64
2023/10/23 05:45:55;;;;;;;;;;;;;;;;;;5053237;28;20004;-64
2023/10/23 05:48:20;;;;;;;;;;;;;;;;;;5048269;28;20002;-64
2023/10/23 05:50:46;;;;;;;;;;;;;;;;;;5044725;28;19913;-64
2023/10/23 05:53:12;;;;;;;;;;;;;;;;;;5050541;28;19963;-64
2023/10/23 05:55:38;;;;;;;;;;;;;;;;;;5053009;28;20261;-64
2023/10/23 05:58:04;;;;;;;;;;;;;;;;;;5048953;28;19921;-65
2023/10/23 06:00:30;;;;;;;;;;;;;;;;;;5048401;28;19912;-65
2023/10/23 06:02:56;;;;;;;;;;;;;;;;;;5043347;28;20284;-64
2023/10/23 06:05:22;;;;;;;;;;;;;;;;;;5050150;28;19975;-65
2023/10/23 06:07:48;;;;;;;;;;;;;;;;;;5044578;28;19923;-65
2023/10/23 06:10:14;;;;;;;;;;;;;;;;;;5048452;28;19917;-65
2023/10/23 06:12:40;;;;;;;;;;;;;;;;;;5047617;28;20384;-65
2023/10/23 06:15:06;;;;;;;;;;;;;;;;;;5047511;28;19924;-65
2023/10/23 06:17:32;;;;;;;;;;;;;;;;;;5052365;28;20387;-65
2023/10/23 06:19:57;;;;;;;;;;;;;;;;;;5047379;28;19948;-65
2023/10/23 06:22:23;;;;;;;;;;;;;;;;;;5051165;28;20407;-65
2023/10/23 06:24:49;;;;;;;;;;;;;;;;;;5052224;28;19963;-65
2023/10/23 06:27:15;;;;;;;;;;;;;;;;;;5048762;28;19925;-65
2023/10/23 06:29:41;;;;;;;;;;;;;;;;;;5051593;28;20364;-65
2023/10/23 06:32:07;;;;;;;;;;;;;;;;;;5050705;28;19917;-64
2023/10/23 06:34:33;;;;;;;;;;;;;;;;;;5048641;28;20011;-64
2023/10/23 06:36:59;;;;;;;;;;;;;;;;;;5032815;28;20014;-64
2023/10/23 06:39:25;;;;;;;;;;;;;;;;;;5044994;28;19943;-65
2023/10/23 06:41:51;;;;;;;;;;;;;;;;;;5051403;28;20369;-64
2023/10/23 06:44:19;;;;;;;;;;;;;;;;;;5049748;28;19948;-64
2023/10/23 06:46:45;;;;;;;;;;;;;;;;;;5050347;28;19975;-64
2023/10/23 06:49:11;;;;;;;;;;;;;;;;;;5050155;28;20388;-64
2023/10/23 06:51:36;;;;;;;;;;;;;;;;;;5046968;28;19913;-68
2023/10/23 06:54:03;;;;;;;;;;;;;;;;;;5044869;28;20396;-64
2023/10/23 06:56:29;;;;;;;;;;;;;;;;;;5051742;28;19966;-65
2023/10/23 06:58:55;;;;;;;;;;;;;;;;;;5044654;28;20423;-65
2023/10/23 07:01:21;;;;;;;;;;;;;;;;;;5040531;28;19941;-65
2023/10/23 07:03:47;;;;;;;;;;;;;;;;;;5050029;28;19974;-65
2023/10/23 07:06:13;;;;;;;;;;;;;;;;;;5040815;28;19920;-64
2023/10/23 07:08:39;;;;;;;;;;;;;;;;;;5041203;28;20380;-64
2023/10/23 07:11:05;;;;;;;;;;;;;;;;;;5046652;28;19913;-64
2023/10/23 07:13:31;;;;;;;;;;;;;;;;;;5048624;28;19982;-65
2023/10/23 07:15:57;;;;;;;;;;;;;;;;;;5047670;28;19944;-65
2023/10/23 07:18:23;;;;;;;;;;;;;;;;;;5050862;28;20346;-65
2023/10/23 07:20:49;;;;;;;;;;;;;;;;;;5049138;28;19976;-64
2023/10/23 07:23:15;;;;;;;;;;;;;;;;;;5048724;28;19991;-65
2023/10/23 07:25:42;;;;;;;;;;;;;;;;;;5043777;28;21511;-64
2023/10/23 07:28:08;;;;;;;;;;;;;;;;;;5046005;28;19963;-65
2023/10/23 07:30:34;;;;;;;;;;;;;;;;;;5046280;28;19916;-64
2023/10/23 07:33:00;;;;;;;;;;;;;;;;;;5050778;28;19942;-65
2023/10/23 07:35:26;;;;;;;;;;;;;;;;;;5041850;28;19984;-65
2023/10/23 07:37:52;;;;;;;;;;;;;;;;;;5039923;28;20027;-65
2023/10/23 07:40:18;;;;;;;;;;;;;;;;;;5044546;28;20278;-65
2023/10/23 07:42:44;;;;;;;;;;;;;;;;;;5044392;28;19920;-65
2023/10/23 07:45:10;;;;;;;;;;;;;;;;;;5049019;28;20054;-65
2023/10/23 07:47:36;;;;;;;;;;;;;;;;;;5041108;28;20349;-65
2023/10/23 07:50:04;;;;;;;;;;;;;;;;;;5045742;28;20011;-65
2023/10/23 07:52:30;;;;;;;;;;;;;;;;;;5028687;28;20395;-65
2023/10/23 07:54:56;;;;;;;;;;;;;;;;;;5049248;28;19944;-65
2023/10/23 07:57:22;;;;;;;;;;;;;;;;;;5045011;28;19923;-65
2023/10/23 07:59:48;;;;;;;;;;;;;;;;;;5041718;28;20364;-65
2023/10/23 08:02:14;;;;;;;;;;;;;;;;;;5045107;28;19916;-65
2023/10/23 08:04:40;;;;;;;;;;;;;;;;;;5047002;28;19956;-65
2023/10/23 08:07:06;;;;;;;;;;;;;;;;;;5041968;28;19940;-65
2023/10/23 08:09:32;;;;;;;;;;;;;;;;;;5045747;28;20447;-65
2023/10/23 08:11:58;;;;;;;;;;;;;;;;;;5047155;28;20286;-65
2023/10/23 08:14:23;;;;;;;;;;;;;;;;;;5044962;28;20003;-65
2023/10/23 08:16:52;;;;;;;;;;;;;;;;;;5050865;28;19917;-65
2023/10/23 08:19:18;;;;;;;;;;;;;;;;;;5044765;28;19924;-65
2023/10/23 08:21:43;;;;;;;;;;;;;;;;;;5051291;28;19960;-65
2023/10/23 08:24:09;;;;;;;;;;;;;;;;;;5044717;28;19963;-65
2023/10/23 08:26:35;;;;;;;;;;;;;;;;;;5046204;28;19920;-64
2023/10/23 08:29:02;;;;;;;;;;;;;;;;;;5030785;28;21527;-65
2023/10/23 08:31:28;;;;;;;;;;;;;;;;;;5041873;28;19928;-65
2023/10/23 08:33:54;;;;;;;;;;;;;;;;;;5048088;28;19948;-65
2023/10/23 08:36:20;;;;;;;;;;;;;;;;;;5048417;28;20379;-64
2023/10/23 08:38:46;;;;;;;;;;;;;;;;;;5046151;28;20361;-65
2023/10/23 08:41:12;;;;;;;;;;;;;;;;;;5043484;28;20000;-64
2023/10/23 08:43:38;;;;;;;;;;;;;;;;;;5050648;28;19920;-64
2023/10/23 08:46:04;;;;;;;;;;;;;;;;;;5044310;28;19916;-64
2023/10/23 08:48:30;;;;;;;;;;;;;;;;;;5043311;28;19921;-65
2023/10/23 08:50:56;;;;;;;;;;;;;;;;;;5043903;28;19960;-64
2023/10/23 08:53:22;;;;;;;;;;;;;;;;;;5050213;28;20007;-65
2023/10/23 08:55:48;;;;;;;;;;;;;;;;;;5052765;28;20408;-64
2023/10/23 08:58:14;;;;;;;;;;;;;;;;;;5062223;28;19944;-64
2023/10/23 09:00:40;;;;;;;;;;;;;;;;;;5048675;28;19920;-64
2023/10/23 09:03:06;;;;;;;;;;;;;;;;;;5042555;28;20004;-64
2023/10/23 09:05:32;;;;;;;;;;;;;;;;;;5046597;28;19920;-64
2023/10/23 09:07:57;;;;;;;;;;;;;;;;;;5046212;28;19917;-64
2023/10/23 09:10:23;;;;;;;;;;;;;;;;;;5042890;28;21516;-64
2023/10/23 09:12:49;;;;;;;;;;;;;;;;;;5050620;28;19994;-62
2023/10/23 09:15:15;;;;;;;;;;;;;;;;;;5041653;28;19944;-61
2023/10/23 09:17:41;;;;;;;;;;;;;;;;;;5048954;28;19982;-61
2023/10/23 09:20:08;;;;;;;;;;;;;;;;;;5045058;28;20388;-62
2023/10/23 09:22:34;;;;;;;;;;;;;;;;;;5049847;28;19912;-62
2023/10/23 09:24:59;;;;;;;;;;;;;;;;;;5034516;28;19960;-61
2023/10/23 09:27:25;;;;;;;;;;;;;;;;;;5036549;28;19917;-62
2023/10/23 09:29:51;;;;;;;;;;;;;;;;;;5041346;28;20387;-62
2023/10/23 09:32:17;;;;;;;;;;;;;;;;;;5051886;28;19923;-61
2023/10/23 09:34:44;;;;;;;;;;;;;;;;;;5051780;28;20046;-62
2023/10/23 09:37:10;;;;;;;;;;;;;;;;;;5044636;28;20372;-62
2023/10/23 09:39:37;;;;;;;;;;;;;;;;;;5052028;28;19980;-62
2023/10/23 09:42:03;;;;;;;;;;;;;;;;;;5053688;28;19912;-63
2023/10/23 09:44:29;;;;;;;;;;;;;;;;;;5052855;28;19924;-62
2023/10/23 09:46:55;;;;;;;;;;;;;;;;;;5046685;28;19971;-62
2023/10/23 09:49:21;;;;;;;;;;;;;;;;;;5049206;28;20376;-61
2023/10/23 09:51:47;;;;;;;;;;;;;;;;;;5052676;28;20288;-62
2023/10/23 09:54:15;;;;;;;;;;;;;;;;;;5051087;28;19959;-63
2023/10/23 09:56:41;;;;;;;;;;;;;;;;;;5052962;28;20434;-62
2023/10/23 09:59:07;;;;;;;;;;;;;;;;;;5051508;28;19955;-62
2023/10/23 10:01:33;;;;;;;;;;;;;;;;;;5047976;28;19922;-62
2023/10/23 10:04:00;;;;;;;;;;;;;;;;;;5048989;28;20022;-61
2023/10/23 10:06:25;;;;;;;;;;;;;;;;;;5048563;28;19991;-62
2023/10/23 10:08:51;;;;;;;;;;;;;;;;;;5052704;28;20007;-61
2023/10/23 10:11:18;;;;;;;;;;;;;;;;;;5045890;28;20316;-63
2023/10/23 10:13:44;;;;;;;;;;;;;;;;;;5054704;28;20419;-61
2023/10/23 10:16:10;;;;;;;;;;;;;;;;;;5052481;28;19919;-62
2023/10/23 10:18:35;;;;;;;;;;;;;;;;;;5049275;28;19916;-61
2023/10/23 10:21:04;;;;;;;;;;;;;;;;;;5049237;28;20051;-62
2023/10/23 10:23:30;;;;;;;;;;;;;;;;;;5045203;28;19943;-64
2023/10/23 10:25:56;;;;;;;;;;;;;;;;;;5051546;28;19920;-65
2023/10/23 10:28:22;;;;;;;;;;;;;;;;;;5042523;28;20101;-65
2023/10/23 10:30:49;;;;;;;;;;;;;;;;;;5040772;28;20003;-64
2023/10/23 10:33:15;;;;;;;;;;;;;;;;;;5050474;28;19916;-64
2023/10/23 10:35:41;;;;;;;;;;;;;;;;;;5049766;28;20017;-64
2023/10/23 10:38:07;;;;;;;;;;;;;;;;;;5052281;28;20302;-65
2023/10/23 10:40:32;;;;;;;;;;;;;;;;;;5051075;28;19916;-64
2023/10/23 10:42:58;;;;;;;;;;;;;;;;;;5041193;28;19912;-64
2023/10/23 10:45:27;;;;;;;;;;;;;;;;;;5050446;28;20360;-64
2023/10/23 10:47:53;;;;;;;;;;;;;;;;;;5050536;28;20063;-65
2023/10/23 10:50:19;;;;;;;;;;;;;;;;;;5045792;28;20210;-64
2023/10/23 10:52:45;;;;;;;;;;;;;;;;;;5051937;28;19966;-64
2023/10/23 10:55:11;;;;;;;;;;;;;;;;;;5051699;28;19917;-64
2023/10/23 10:57:37;;;;;;;;;;;;;;;;;;5051512;28;19960;-64
2023/10/23 11:00:03;;;;;;;;;;;;;;;;;;5050829;28;19912;-64
2023/10/23 11:02:29;;;;;;;;;;;;;;;;;;5051834;28;20008;-64
2023/10/23 11:04:55;;;;;;;;;;;;;;;;;;5049374;28;19960;-64
2023/10/23 11:07:22;;;;;;;;;;;;;;;;;;5050080;28;19928;-64
2023/10/23 11:09:48;;;;;;;;;;;;;;;;;;5047068;28;19913;-64
2023/10/23 11:12:14;;;;;;;;;;;;;;;;;;5044750;28;19975;-64
2023/10/23 11:14:40;;;;;;;;;;;;;;;;;;5039314;28;19968;-64
2023/10/23 11:17:06;;;;;;;;;;;;;;;;;;5046568;28;19995;-64
2023/10/23 11:19:32;;;;;;;;;;;;;;;;;;5048380;28;20279;-64
2023/10/23 11:21:58;;;;;;;;;;;;;;;;;;5051517;28;19913;-64
2023/10/23 11:24:24;;;;;;;;;;;;;;;;;;5047826;28;19921;-64
2023/10/23 11:26:50;;;;;;;;;;;;;;;;;;5051457;28;20376;-64
2023/10/23 11:29:16;;;;;;;;;;;;;;;;;;5050169;28;19978;-64
2023/10/23 11:31:42;;;;;;;;;;;;;;;;;;5044910;28;19967;-64
2023/10/23 11:34:09;;;;;;;;;;;;;;;;;;5051344;28;20419;-68
2023/10/23 11:36:35;;;;;;;;;;;;;;;;;;5051148;28;20285;-68
2023/10/23 11:39:01;;;;;;;;;;;;;;;;;;5049402;28;19913;-69
2023/10/23 11:41:28;;;;;;;;;;;;;;;;;;5050506;28;20029;-68
2023/10/23 11:43:54;;;;;;;;;;;;;;;;;;5050246;28;19917;-69
2023/10/23 11:46:20;;;;;;;;;;;;;;;;;;5049847;28;20304;-69
2023/10/23 11:48:45;;;;;;;;;;;;;;;;;;5042792;28;19963;-68
2023/10/23 11:51:11;;;;;;;;;;;;;;;;;;5056580;28;19928;-68
2023/10/23 11:53:37;;;;;;;;;;;;;;;;;;5054839;28;20237;-68
2023/10/23 11:56:03;;;;;;;;;;;;;;;;;;5055197;28;19909;-69
2023/10/23 11:58:29;;;;;;;;;;;;;;;;;;5054098;28;19909;-68
2023/10/23 12:00:55;;;;;;;;;;;;;;;;;;5051217;28;19927;-68
2023/10/23 12:03:21;;;;;;;;;;;;;;;;;;5042660;28;20330;-69
2023/10/23 12:05:47;;;;;;;;;;;;;;;;;;5051728;28;20458;-69
2023/10/23 12:08:13;;;;;;;;;;;;;;;;;;5053042;28;19921;-68
2023/10/23 12:10:39;;;;;;;;;;;;;;;;;;5041749;28;20381;-69
2023/10/23 12:13:05;;;;;;;;;;;;;;;;;;5052808;28;19908;-69
2023/10/23 12:15:31;;;;;;;;;;;;;;;;;;5043072;28;19916;-67
2023/10/23 12:18:04;;;;;;;;;;;;;;;;;;5051320;28;20409;-68
2023/10/23 12:20:30;;;;;;;;;;;;;;;;;;5032775;28;19951;-69
2023/10/23 12:22:56;;;;;;;;;;;;;;;;;;5049789;28;20698;-68
2023/10/23 12:25:22;;;;;;;;;;;;;;;;;;5054390;28;20004;-66
2023/10/23 12:27:47;;;;;;;;;;;;;;;;;;5049636;28;19966;-67
2023/10/23 12:30:15;;;;;;;;;;;;;;;;;;5052572;28;19913;-66
2023/10/23 12:32:41;;;;;;;;;;;;;;;;;;5054091;28;20017;-68
2023/10/23 12:35:07;;;;;;;;;;;;;;;;;;5052630;28;19967;-68
2023/10/23 12:37:34;;;;;;;;;;;;;;;;;;5049208;28;20398;-68
2023/10/23 12:40:00;;;;;;;;;;;;;;;;;;5050983;28;19958;-68
2023/10/23 12:42:26;;;;;;;;;;;;;;;;;;5047202;28;19932;-62
2023/10/23 12:44:54;;;;;;;;;;;;;;;;;;5043019;28;19921;-62
2023/10/23 12:47:20;;;;;;;;;;;;;;;;;;5049607;28;19913;-62
2023/10/23 12:49:46;;;;;;;;;;;;;;;;;;5047964;28;19917;-61
2023/10/23 12:52:12;;;;;;;;;;;;;;;;;;5027913;28;20406;-62
2023/10/23 12:54:38;;;;;;;;;;;;;;;;;;5047119;28;19999;-62
2023/10/23 12:57:04;;;;;;;;;;;;;;;;;;5049292;28;19916;-62
2023/10/23 12:59:30;;;;;;;;;;;;;;;;;;5046301;28;20709;-62
2023/10/23 13:01:56;;;;;;;;;;;;;;;;;;5052473;28;19942;-60
2023/10/23 13:04:21;;;;;;;;;;;;;;;;;;5041727;28;20011;-60
2023/10/23 13:06:47;;;;;;;;;;;;;;;;;;5050133;28;20414;-61
2023/10/23 13:09:15;;;;;;;;;;;;;;;;;;5048463;28;19994;-63
2023/10/23 13:11:41;;;;;;;;;;;;;;;;;;5043698;28;19957;-61
2023/10/23 13:14:06;;;;;;;;;;;;;;;;;;5048811;28;19941;-61
2023/10/23 13:16:32;;;;;;;;;;;;;;;;;;5052113;28;20284;-60
2023/10/23 13:18:58;;;;;;;;;;;;;;;;;;5047124;28;19919;-61
2023/10/23 13:21:24;;;;;;;;;;;;;;;;;;5041075;28;19913;-62
2023/10/23 13:23:50;;;;;;;;;;;;;;;;;;5041009;28;20435;-61
2023/10/23 13:26:19;;;;;;;;;;;;;;;;;;5046657;28;19925;-61
2023/10/23 13:28:45;;;;;;;;;;;;;;;;;;5044482;28;20084;-61
2023/10/23 13:31:11;;;;;;;;;;;;;;;;;;5050162;28;20055;-61
2023/10/23 13:33:36;;;;;;;;;;;;;;;;;;5053073;28;19908;-61
2023/10/23 13:36:02;;;;;;;;;;;;;;;;;;5048514;28;19917;-60
2023/10/23 13:38:28;;;;;;;;;;;;;;;;;;5053208;28;20293;-60
2023/10/23 13:40:55;;;;;;;;;;;;;;;;;;5041196;28;19979;-61
2023/10/23 13:43:22;;;;;;;;;;;;;;;;;;5048718;28;20361;-61
2023/10/23 13:45:48;;;;;;;;;;;;;;;;;;5023577;28;19959;-60
2023/10/23 13:48:14;;;;;;;;;;;;;;;;;;5050579;28;20031;-62
2023/10/23 13:50:40;;;;;;;;;;;;;;;;;;5046686;28;20369;-62
2023/10/23 13:53:06;;;;;;;;;;;;;;;;;;5041143;28;20003;-64
2023/10/23 13:55:32;;;;;;;;;;;;;;;;;;5036604;28;19959;-64
2023/10/23 13:57:58;;;;;;;;;;;;;;;;;;5050795;28;20442;-64
2023/10/23 14:00:25;;;;;;;;;;;;;;;;;;5041348;28;20381;-64
2023/10/23 14:02:51;;;;;;;;;;;;;;;;;;5045804;28;19969;-64
2023/10/23 14:05:17;;;;;;;;;;;;;;;;;;5045889;28;19978;-64
2023/10/23 14:07:44;;;;;;;;;;;;;;;;;;5041575;28;20448;-64
2023/10/23 14:10:10;;;;;;;;;;;;;;;;;;5038094;28;19989;-64
2023/10/23 14:12:36;;;;;;;;;;;;;;;;;;5046919;28;19913;-64
2023/10/23 14:15:02;;;;;;;;;;;;;;;;;;5045371;28;19956;-64
2023/10/23 14:17:28;;;;;;;;;;;;;;;;;;5065598;28;20400;-64
2023/10/23 14:19:54;;;;;;;;;;;;;;;;;;5046303;28;19936;-65
2023/10/23 14:22:20;;;;;;;;;;;;;;;;;;5043064;28;19920;-64
2023/10/23 14:24:45;;;;;;;;;;;;;;;;;;5045286;28;20380;-64
2023/10/23 14:27:11;;;;;;;;;;;;;;;;;;5047748;28;19926;-64
2023/10/23 14:29:37;;;;;;;;;;;;;;;;;;5046449;28;19921;-64
2023/10/23 14:32:03;;;;;;;;;;;;;;;;;;5045714;28;19960;-65
2023/10/23 14:34:29;;;;;;;;;;;;;;;;;;5046951;28;19956;-65
2023/10/23 14:36:55;;;;;;;;;;;;;;;;;;5049216;28;19960;-64
2023/10/23 14:39:21;;;;;;;;;;;;;;;;;;5050775;28;20451;-65
2023/10/23 14:41:47;;;;;;;;;;;;;;;;;;5051859;28;19908;-64
2023/10/23 14:44:13;;;;;;;;;;;;;;;;;;5047535;28;19917;-65
2023/10/23 14:46:39;;;;;;;;;;;;;;;;;;5045889;28;20016;-65
2023/10/23 14:49:05;;;;;;;;;;;;;;;;;;5042549;28;20015;-65
2023/10/23 14:51:31;;;;;;;;;;;;;;;;;;5050511;28;20353;-65
2023/10/23 14:53:57;;;;;;;;;;;;;;;;;;5049336;28;19999;-65
2023/10/23 14:56:22;;;;;;;;;;;;;;;;;;5046659;28;20003;-65
2023/10/23 14:58:48;;;;;;;;;;;;;;;;;;5051416;28;20345;-65
2023/10/23 15:01:14;;;;;;;;;;;;;;;;;;5050295;28;19981;-66
2023/10/23 15:03:42;;;;;;;;;;;;;;;;;;5049911;28;19919;-65
2023/10/23 15:06:07;;;;;;;;;;;;;;;;;;5043703;28;19920;-66
2023/10/23 15:08:33;;;;;;;;;;;;;;;;;;5049442;28;19920;-66
2023/10/23 15:10:59;;;;;;;;;;;;;;;;;;5050769;28;20008;-66
2023/10/23 15:13:25;;;;;;;;;;;;;;;;;;5048845;28;20386;-65
2023/10/23 15:15:51;;;;;;;;;;;;;;;;;;5039439;28;19917;-65
2023/10/23 15:18:17;;;;;;;;;;;;;;;;;;5050558;28;19917;-65
2023/10/23 15:20:44;;;;;;;;;;;;;;;;;;5050655;28;19987;-65
2023/10/23 15:23:10;;;;;;;;;;;;;;;;;;5042768;28;19921;-65
2023/10/23 15:25:36;;;;;;;;;;;;;;;;;;5048561;28;19955;-65
2023/10/23 15:28:03;;;;;;;;;;;;;;;;;;5044805;28;20199;-64
2023/10/23 15:30:29;;;;;;;;;;;;;;;;;;5040342;28;19913;-65
2023/10/23 15:32:55;;;;;;;;;;;;;;;;;;5048009;28;20703;-65
2023/10/23 15:35:21;;;;;;;;;;;;;;;;;;5048620;28;20016;-65
2023/10/23 15:37:47;;;;;;;;;;;;;;;;;;5047292;28;19919;-65
2023/10/23 15:40:13;;;;;;;;;;;;;;;;;;5045604;28;20323;-65
2023/10/23 15:42:39;;;;;;;;;;;;;;;;;;5042544;28;19995;-65
2023/10/23 15:45:05;;;;;;;;;;;;;;;;;;5043683;28;19928;-65
2023/10/23 15:47:31;;;;;;;;;;;;;;;;;;5037901;28;20051;-65
2023/10/23 15:49:57;;;;;;;;;;;;;;;;;;5041398;28;19941;-65
2023/10/23 15:52:24;;;;;;;;;;;;;;;;;;5045775;28;19971;-65
2023/10/23 15:54:50;;;;;;;;;;;;;;;;;;5044548;28;19935;-65
2023/10/23 15:57:16;;;;;;;;;;;;;;;;;;5042810;28;19913;-65
2023/10/23 15:59:41;;;;;;;;;;;;;;;;;;5046378;28;19940;-65
2023/10/23 16:02:07;;;;;;;;;;;;;;;;;;5049044;28;19968;-65
2023/10/23 16:04:33;;;;;;;;;;;;;;;;;;5048216;28;19927;-65
2023/10/23 16:06:59;;;;;;;;;;;;;;;;;;5046449;28;19960;-65
2023/10/23 16:09:25;;;;;;;;;;;;;;;;;;5046095;28;19943;-64
2023/10/23 16:11:51;;;;;;;;;;;;;;;;;;5049798;28;20425;-65
2023/10/23 16:14:17;;;;;;;;;;;;;;;;;;5049985;28;19923;-65
2023/10/23 16:16:43;;;;;;;;;;;;;;;;;;5048942;28;19964;-65
2023/10/23 16:19:09;;;;;;;;;;;;;;;;;;5045755;28;19913;-65
2023/10/23 16:21:35;;;;;;;;;;;;;;;;;;5046921;28;19927;-65
2023/10/23 16:24:02;;;;;;;;;;;;;;;;;;5046817;28;19927;-65
2023/10/23 16:26:28;;;;;;;;;;;;;;;;;;5051614;28;19981;-65
2023/10/23 16:28:54;;;;;;;;;;;;;;;;;;5038624;28;19917;-65
2023/10/23 16:31:20;;;;;;;;;;;;;;;;;;5050680;28;19931;-65
2023/10/23 16:33:46;;;;;;;;;;;;;;;;;;5048424;28;20006;-65
2023/10/23 16:36:12;;;;;;;;;;;;;;;;;;5044796;28;19913;-65